createdAt,value
2023-05-15T00:03:02.400Z,12.50
2023-05-15T00:06:06.062Z,12.50
2023-05-15T00:09:10.649Z,12.40
2023-05-15T00:12:13.735Z,12.30
2023-05-15T00:15:16.769Z,12.30
2023-05-15T00:18:19.775Z,12.30
2023-05-15T00:21:22.816Z,12.30
2023-05-15T00:24:27.190Z,12.20
2023-05-15T00:27:30.199Z,12.20
2023-05-15T00:30:33.406Z,12.20
2023-05-15T00:33:36.481Z,12.10
2023-05-15T00:36:39.898Z,12.10
2023-05-15T00:39:44.436Z,12.10
2023-05-15T00:42:48.206Z,12.10
2023-05-15T00:45:52.740Z,12.10
2023-05-15T00:48:58.595Z,12.10
2023-05-15T00:52:03.840Z,12.00
2023-05-15T00:55:10.208Z,12.00
2023-05-15T00:58:15.582Z,11.90
2023-05-15T01:01:19.455Z,11.90
2023-05-15T01:04:22.827Z,11.90
2023-05-15T01:07:25.932Z,11.90
2023-05-15T01:10:30.578Z,11.90
2023-05-15T01:13:33.677Z,11.80
2023-05-15T01:16:38.785Z,11.80
2023-05-15T01:19:43.023Z,11.70
2023-05-15T01:22:52.917Z,11.70
2023-05-15T01:26:50.308Z,11.70
2023-05-15T01:30:06.477Z,11.70
2023-05-15T01:33:17.408Z,11.60
2023-05-15T01:36:27.957Z,11.60
2023-05-15T01:39:34.522Z,11.50
2023-05-15T01:42:42.681Z,11.50
2023-05-15T01:45:47.134Z,11.50
2023-05-15T01:48:52.002Z,11.50
2023-05-15T01:51:59.366Z,11.50
2023-05-15T01:55:04.076Z,11.50
2023-05-15T01:58:07.819Z,11.50
2023-05-15T02:01:12.716Z,11.50
2023-05-15T02:04:16.874Z,11.50
2023-05-15T02:07:20.306Z,11.50
2023-05-15T02:10:24.425Z,11.50
2023-05-15T02:13:28.371Z,11.50
2023-05-15T02:16:32.833Z,11.40
2023-05-15T02:19:36.041Z,11.40
2023-05-15T02:22:39.106Z,11.40
2023-05-15T02:25:51.252Z,11.40
2023-05-15T02:29:05.090Z,11.40
2023-05-15T02:32:16.668Z,11.40
2023-05-15T02:35:28.201Z,11.30
2023-05-15T02:38:34.985Z,11.30
2023-05-15T02:41:39.069Z,11.30
2023-05-15T02:44:43.211Z,11.30
2023-05-15T02:47:50.440Z,11.20
2023-05-15T02:50:53.960Z,11.20
2023-05-15T02:53:57.498Z,11.20
2023-05-15T02:57:00.689Z,11.30
2023-05-15T03:00:06.380Z,11.30
2023-05-15T03:03:10.969Z,11.30
2023-05-15T03:06:14.078Z,11.40
2023-05-15T03:09:17.940Z,11.40
2023-05-15T03:12:20.998Z,11.40
2023-05-15T03:15:24.220Z,11.30
2023-05-15T03:18:28.824Z,11.40
2023-05-15T03:21:32.118Z,11.40
2023-05-15T03:24:35.189Z,11.40
2023-05-15T03:27:38.151Z,11.40
2023-05-15T03:30:41.353Z,11.30
2023-05-15T03:33:49.821Z,11.30
2023-05-15T03:36:52.872Z,11.30
2023-05-15T03:39:56.207Z,11.30
2023-05-15T03:42:59.205Z,11.30
2023-05-15T03:46:02.569Z,11.30
2023-05-15T03:49:07.165Z,11.30
2023-05-15T03:52:11.044Z,11.20
2023-05-15T03:55:14.219Z,11.20
2023-05-15T03:58:17.578Z,11.10
2023-05-15T04:01:20.751Z,11.20
2023-05-15T04:04:25.083Z,11.10
2023-05-15T04:07:28.529Z,11.10
2023-05-15T04:10:32.433Z,11.20
2023-05-15T04:13:35.445Z,11.20
2023-05-15T04:16:39.628Z,11.20
2023-05-15T04:19:45.938Z,11.30
2023-05-15T04:22:49.398Z,11.40
2023-05-15T04:25:53.779Z,11.50
2023-05-15T04:29:03.962Z,11.50
2023-05-15T04:32:07.993Z,11.60
2023-05-15T04:35:14.098Z,11.70
2023-05-15T04:38:16.990Z,11.80
2023-05-15T04:41:20.082Z,11.90
2023-05-15T04:44:23.123Z,11.90
2023-05-15T04:47:26.333Z,12.00
2023-05-15T04:50:30.820Z,12.00
2023-05-15T04:53:33.727Z,12.00
2023-05-15T04:56:37.012Z,12.10
2023-05-15T04:59:40.410Z,12.10
2023-05-15T05:02:44.150Z,12.20
2023-05-15T05:05:50.842Z,12.30
2023-05-15T05:08:53.781Z,12.50
2023-05-15T05:11:56.813Z,12.90
2023-05-15T05:14:59.743Z,13.30
2023-05-15T05:18:02.806Z,13.60
2023-05-15T05:21:07.530Z,13.90
2023-05-15T05:24:11.668Z,14.20
2023-05-15T05:27:14.684Z,14.60
2023-05-15T05:30:17.860Z,15.00
2023-05-15T05:33:20.892Z,15.30
2023-05-15T05:36:25.418Z,15.50
2023-05-15T05:39:28.380Z,15.80
2023-05-15T05:42:31.428Z,16.10
2023-05-15T05:45:34.453Z,16.40
2023-05-15T05:48:37.434Z,16.60
2023-05-15T05:51:41.815Z,16.70
2023-05-15T05:54:46.382Z,16.60
2023-05-15T05:57:49.494Z,16.60
2023-05-15T06:00:52.536Z,16.40
2023-05-15T06:03:56.181Z,16.20
2023-05-15T06:07:00.867Z,16.00
2023-05-15T06:10:04.002Z,15.90
2023-05-15T06:13:06.961Z,15.80
2023-05-15T06:16:10.142Z,15.60
2023-05-15T06:19:13.399Z,15.50
2023-05-15T06:22:17.837Z,15.50
2023-05-15T06:25:21.000Z,15.50
2023-05-15T06:28:24.220Z,15.50
2023-05-15T06:31:27.322Z,15.50
2023-05-15T06:34:30.448Z,15.60
2023-05-15T06:37:34.882Z,15.80
2023-05-15T06:40:37.893Z,16.00
2023-05-15T06:43:40.870Z,16.10
2023-05-15T06:46:43.996Z,16.30
2023-05-15T06:49:47.221Z,16.40
2023-05-15T06:52:51.673Z,16.50
2023-05-15T06:55:54.604Z,16.60
2023-05-15T06:58:57.639Z,16.70
2023-05-15T07:02:00.713Z,16.80
2023-05-15T07:05:03.863Z,16.90
2023-05-15T07:08:08.451Z,17.00
2023-05-15T07:11:11.698Z,17.20
2023-05-15T07:14:15.359Z,17.40
2023-05-15T07:17:19.184Z,17.60
2023-05-15T07:20:28.208Z,18.00
2023-05-15T07:23:34.119Z,18.10
2023-05-15T07:26:46.610Z,18.20
2023-05-15T07:30:00.766Z,18.30
2023-05-15T07:33:03.797Z,18.30
2023-05-15T07:36:07.596Z,18.40
2023-05-15T07:39:12.077Z,18.40
2023-05-15T07:42:15.193Z,18.30
2023-05-15T07:45:18.441Z,18.40
2023-05-15T07:48:21.743Z,18.40
2023-05-15T07:51:24.749Z,18.30
2023-05-15T07:54:32.295Z,18.40
2023-05-15T07:57:35.326Z,18.40
2023-05-15T08:00:38.686Z,18.50
2023-05-15T08:03:41.770Z,18.50
2023-05-15T08:06:45.423Z,18.60
2023-05-15T08:09:49.733Z,18.90
2023-05-15T08:12:52.743Z,19.00
2023-05-15T08:15:56.112Z,19.10
2023-05-15T08:19:01.680Z,19.30
2023-05-15T08:22:04.915Z,19.50
2023-05-15T08:25:10.401Z,19.60
2023-05-15T08:28:13.469Z,19.60
2023-05-15T08:31:16.565Z,19.50
2023-05-15T08:34:19.639Z,19.50
2023-05-15T08:37:22.612Z,19.50
2023-05-15T08:40:38.500Z,19.30
2023-05-15T08:43:43.983Z,19.10
2023-05-15T08:46:48.684Z,19.00
2023-05-15T08:50:01.353Z,18.80
2023-05-15T08:53:05.785Z,18.80
2023-05-15T08:56:10.208Z,18.70
2023-05-15T08:59:13.661Z,18.70
2023-05-15T09:02:18.275Z,18.70
2023-05-15T09:05:21.539Z,18.70
2023-05-15T09:08:26.152Z,18.70
2023-05-15T09:11:32.885Z,18.80
2023-05-15T09:14:36.182Z,18.90
2023-05-15T09:17:39.795Z,18.90
2023-05-15T09:20:43.163Z,18.90
2023-05-15T09:23:46.594Z,18.90
2023-05-15T09:27:06.969Z,18.90
2023-05-15T09:30:11.513Z,18.90
2023-05-15T09:33:14.477Z,18.90
2023-05-15T09:36:23.320Z,18.80
2023-05-15T09:39:26.514Z,18.90
2023-05-15T09:42:36.031Z,19.00
2023-05-15T09:45:39.221Z,19.10
2023-05-15T09:48:42.403Z,19.20
2023-05-15T09:51:46.549Z,19.40
2023-05-15T09:54:51.442Z,19.40
2023-05-15T09:58:10.981Z,19.50
2023-05-15T10:01:14.133Z,19.50
2023-05-15T10:04:17.556Z,19.50
2023-05-15T10:07:29.342Z,19.50
2023-05-15T10:10:32.988Z,19.50
2023-05-15T10:13:37.904Z,19.60
2023-05-15T10:16:42.284Z,19.60
2023-05-15T10:19:57.257Z,19.70
2023-05-15T10:23:05.229Z,19.50
2023-05-15T10:26:20.371Z,19.60
2023-05-15T10:29:26.998Z,19.60
2023-05-15T10:32:30.820Z,19.50
2023-05-15T10:35:36.212Z,19.50
2023-05-15T10:38:40.335Z,19.40
2023-05-15T10:41:46.334Z,19.40
2023-05-15T10:44:51.880Z,19.40
2023-05-15T10:47:55.433Z,19.40
2023-05-15T10:51:01.385Z,19.30
2023-05-15T10:54:04.810Z,19.20
2023-05-15T10:57:07.815Z,19.00
2023-05-15T11:03:49.686Z,18.90
2023-05-15T11:07:13.199Z,18.90
2023-05-15T11:10:37.842Z,18.90
2023-05-15T11:14:14.068Z,19.00
2023-05-15T11:17:17.663Z,19.30
2023-05-15T11:20:34.480Z,19.50
2023-05-15T11:23:42.223Z,19.70
2023-05-15T11:26:45.252Z,19.90
2023-05-15T11:30:12.290Z,20.00
2023-05-15T11:33:16.545Z,20.10
2023-05-15T11:36:25.461Z,20.20
2023-05-15T11:39:29.303Z,20.30
2023-05-15T11:42:33.410Z,20.50
2023-05-15T11:45:38.134Z,20.80
2023-05-15T11:48:43.015Z,21.00
2023-05-15T11:51:49.648Z,21.10
2023-05-15T11:54:52.683Z,21.00
2023-05-15T11:57:55.665Z,21.00
2023-05-15T12:00:59.339Z,20.90
2023-05-15T12:04:02.849Z,20.90
2023-05-15T12:07:08.866Z,20.90
2023-05-15T12:10:13.056Z,21.00
2023-05-15T12:13:18.525Z,21.30
2023-05-15T12:16:26.059Z,21.50
2023-05-15T12:19:29.255Z,21.70
2023-05-15T12:22:38.664Z,21.70
2023-05-15T12:25:41.833Z,21.80
2023-05-15T12:28:45.437Z,21.60
2023-05-15T12:31:53.841Z,21.60
2023-05-15T12:34:58.138Z,21.60
2023-05-15T12:38:04.313Z,21.70
2023-05-15T12:41:07.451Z,22.00
2023-05-15T12:44:17.620Z,22.10
2023-05-15T12:47:24.932Z,22.00
2023-05-15T12:50:30.564Z,21.90
2023-05-15T12:53:35.590Z,22.10
2023-05-15T12:56:38.562Z,22.30
2023-05-15T12:59:44.008Z,22.50
2023-05-15T13:02:47.314Z,22.90
2023-05-15T13:05:51.503Z,23.10
2023-05-15T13:08:56.430Z,23.40
2023-05-15T13:11:59.513Z,23.60
2023-05-15T13:15:02.569Z,23.60
2023-05-15T13:18:08.228Z,23.40
2023-05-15T13:21:11.831Z,23.00
2023-05-15T13:24:16.280Z,23.00
2023-05-15T13:27:19.304Z,23.00
2023-05-15T13:30:22.334Z,23.30
2023-05-15T13:33:27.735Z,23.60
2023-05-15T13:36:31.072Z,23.90
2023-05-15T13:39:35.329Z,23.60
2023-05-15T13:42:40.626Z,23.00
2023-05-15T13:45:43.678Z,22.40
2023-05-15T13:48:46.791Z,21.70
2023-05-15T13:51:49.772Z,21.10
2023-05-15T13:54:54.905Z,20.70
2023-05-15T13:57:58.247Z,20.20
2023-05-15T14:01:01.272Z,19.70
2023-05-15T14:04:04.465Z,19.40
2023-05-15T14:07:07.521Z,19.10
2023-05-15T14:10:13.725Z,18.70
2023-05-15T14:13:16.787Z,18.40
2023-05-15T14:16:20.091Z,18.10
2023-05-15T14:19:23.151Z,18.00
2023-05-15T14:22:26.359Z,17.80
2023-05-15T14:25:30.798Z,17.50
2023-05-15T14:28:33.976Z,17.50
2023-05-15T14:31:37.044Z,17.40
2023-05-15T14:34:40.164Z,17.30
2023-05-15T14:37:45.114Z,17.40
2023-05-15T14:40:56.757Z,17.20
2023-05-15T14:43:59.725Z,17.20
2023-05-15T14:47:10.045Z,17.20
2023-05-15T14:50:13.004Z,17.50
2023-05-15T14:53:16.059Z,17.80
2023-05-15T14:56:22.826Z,18.00
2023-05-15T14:59:25.869Z,18.20
2023-05-15T15:02:28.977Z,18.40
2023-05-15T15:05:32.210Z,18.50
2023-05-15T15:08:35.653Z,18.70
2023-05-15T15:15:15.594Z,18.90
2023-05-15T15:18:20.580Z,19.20
2023-05-15T15:21:23.664Z,19.70
2023-05-15T15:24:26.674Z,19.70
2023-05-15T15:27:33.330Z,19.70
2023-05-15T15:30:37.418Z,19.50
2023-05-15T15:33:40.587Z,19.60
2023-05-15T15:36:43.680Z,19.60
2023-05-15T15:39:47.016Z,19.80
2023-05-15T15:42:51.353Z,19.90
2023-05-15T15:45:55.288Z,19.80
2023-05-15T15:48:58.267Z,19.70
2023-05-15T15:52:01.877Z,19.70
2023-05-15T15:55:05.410Z,19.50
2023-05-15T15:58:09.915Z,19.30
2023-05-15T16:01:13.268Z,19.10
2023-05-15T16:04:16.515Z,19.00
2023-05-15T16:07:19.712Z,18.90
2023-05-15T16:10:22.753Z,18.70
2023-05-15T16:13:27.201Z,18.60
2023-05-15T16:16:30.307Z,18.60
2023-05-15T16:19:33.335Z,18.40
2023-05-15T16:22:36.627Z,18.30
2023-05-15T16:25:39.685Z,18.20
2023-05-15T16:28:44.383Z,18.20
2023-05-15T16:31:47.822Z,18.10
2023-05-15T16:34:50.997Z,18.10
2023-05-15T16:37:54.032Z,18.00
2023-05-15T16:40:57.077Z,18.00
2023-05-15T16:44:01.514Z,17.80
2023-05-15T16:47:04.703Z,17.80
2023-05-15T16:50:08.722Z,17.80
2023-05-15T16:53:12.282Z,17.60
2023-05-15T16:56:15.428Z,17.80
2023-05-15T16:59:19.808Z,17.80
2023-05-15T17:02:22.914Z,17.80
2023-05-15T17:05:25.922Z,17.80
2023-05-15T17:08:28.898Z,17.80
2023-05-15T17:11:31.854Z,17.70
2023-05-15T17:14:36.345Z,17.60
2023-05-15T17:17:39.471Z,17.50
2023-05-15T17:20:42.461Z,17.40
2023-05-15T17:23:45.418Z,17.40
2023-05-15T17:26:48.383Z,17.30
2023-05-15T17:29:52.840Z,17.20
2023-05-15T17:32:56.632Z,17.20
2023-05-15T17:35:59.783Z,17.20
2023-05-15T17:39:03.042Z,17.20
2023-05-15T17:42:06.583Z,17.30
2023-05-15T17:45:12.380Z,17.30
2023-05-15T17:48:15.452Z,17.20
2023-05-15T17:51:18.425Z,17.20
2023-05-15T17:54:21.842Z,17.20
2023-05-15T17:57:25.091Z,17.00
2023-05-15T18:00:30.966Z,17.00
2023-05-15T18:03:34.805Z,17.00
2023-05-15T18:06:38.005Z,16.90
2023-05-15T18:09:41.156Z,16.90
2023-05-15T18:12:44.128Z,16.80
2023-05-15T18:15:48.919Z,16.70
2023-05-15T18:18:52.253Z,16.70
2023-05-15T18:21:55.408Z,16.60
2023-05-15T18:24:58.667Z,16.60
2023-05-15T18:28:01.784Z,16.50
2023-05-15T18:31:07.938Z,16.50
2023-05-15T18:34:11.270Z,16.40
2023-05-15T18:37:14.877Z,16.40
2023-05-15T18:40:18.097Z,16.40
2023-05-15T18:43:21.460Z,16.30
2023-05-15T18:46:28.235Z,16.20
2023-05-15T18:49:31.820Z,16.20
2023-05-15T18:52:34.871Z,16.30
2023-05-15T18:55:38.955Z,16.30
2023-05-15T18:58:42.014Z,16.20
2023-05-15T19:01:46.550Z,16.20
2023-05-15T19:04:49.919Z,16.10
2023-05-15T19:07:53.163Z,16.10
2023-05-15T19:10:56.182Z,16.20
2023-05-15T19:13:59.189Z,16.20
2023-05-15T19:17:03.953Z,16.20
2023-05-15T19:20:08.564Z,16.10
2023-05-15T19:23:12.851Z,16.20
2023-05-15T19:26:15.851Z,16.10
2023-05-15T19:29:18.905Z,16.00
2023-05-15T19:32:23.386Z,16.00
2023-05-15T19:35:26.533Z,16.00
2023-05-15T19:38:29.869Z,15.90
2023-05-15T19:41:32.891Z,15.80
2023-05-15T19:44:36.042Z,15.80
2023-05-15T19:47:42.572Z,15.70
2023-05-15T19:50:46.493Z,15.60
2023-05-15T19:53:49.681Z,15.60
2023-05-15T19:56:52.780Z,15.50
2023-05-15T19:59:56.164Z,15.40
2023-05-15T20:03:03.271Z,15.30
2023-05-15T20:06:08.166Z,15.20
2023-05-15T20:09:11.227Z,15.10
2023-05-15T20:12:14.369Z,15.00
2023-05-15T20:15:17.548Z,15.00
2023-05-15T20:18:22.461Z,14.90
2023-05-15T20:21:25.637Z,14.90
2023-05-15T20:24:28.882Z,14.90
2023-05-15T20:27:32.247Z,14.80
2023-05-15T20:30:35.665Z,14.80
2023-05-15T20:33:42.774Z,14.80
2023-05-15T20:36:46.149Z,14.70
2023-05-15T20:39:49.357Z,14.60
2023-05-15T20:42:52.780Z,14.60
2023-05-15T20:45:56.373Z,14.60
2023-05-15T20:49:01.032Z,14.60
2023-05-15T20:52:04.111Z,14.60
2023-05-15T20:55:16.153Z,14.60
2023-05-15T20:58:19.228Z,14.60
2023-05-15T21:01:22.350Z,14.60
2023-05-15T21:04:26.897Z,14.60
2023-05-15T21:07:30.095Z,14.70
2023-05-15T21:10:33.473Z,14.60
2023-05-15T21:13:36.549Z,14.60
2023-05-15T21:16:39.693Z,14.70
2023-05-15T21:19:44.453Z,14.60
2023-05-15T21:22:47.598Z,14.60
2023-05-15T21:25:50.671Z,14.60
2023-05-15T21:28:53.948Z,14.50
2023-05-15T21:31:57.382Z,14.50
2023-05-15T21:35:01.929Z,14.40
2023-05-15T21:38:05.096Z,14.40
2023-05-15T21:41:08.286Z,14.40
2023-05-15T21:44:11.492Z,14.40
2023-05-15T21:47:14.594Z,14.40
2023-05-15T21:50:19.413Z,14.40
2023-05-15T21:53:22.833Z,14.50
2023-05-15T21:56:25.968Z,14.50
2023-05-15T21:59:29.221Z,14.40
2023-05-15T22:02:32.487Z,14.40
2023-05-15T22:05:37.039Z,14.40
2023-05-15T22:08:40.244Z,14.30
2023-05-15T22:11:43.834Z,14.40
2023-05-15T22:14:57.832Z,14.40
2023-05-15T22:18:01.850Z,14.40
2023-05-15T22:21:06.418Z,14.40
2023-05-15T22:24:10.084Z,14.40
2023-05-15T22:27:16.574Z,14.30
2023-05-15T22:30:19.950Z,14.40
2023-05-15T22:33:24.551Z,14.40
2023-05-15T22:36:30.876Z,14.30
2023-05-15T22:39:34.412Z,14.30
2023-05-15T22:42:37.628Z,14.40
2023-05-15T22:45:40.773Z,14.40
2023-05-15T22:48:44.081Z,14.40
2023-05-15T22:51:48.594Z,14.40
2023-05-15T22:54:51.721Z,14.40
2023-05-15T22:57:55.168Z,14.40
2023-05-15T23:00:58.350Z,14.40
2023-05-15T23:04:01.929Z,14.40
2023-05-15T23:07:06.935Z,14.40
2023-05-15T23:10:11.070Z,14.30
2023-05-15T23:13:14.345Z,14.30
2023-05-15T23:16:26.921Z,14.30
2023-05-15T23:19:30.500Z,14.20
2023-05-15T23:22:35.054Z,14.20
2023-05-15T23:25:39.088Z,14.20
2023-05-15T23:28:42.411Z,14.10
2023-05-15T23:31:45.967Z,14.10
2023-05-15T23:34:49.337Z,14.10
2023-05-15T23:37:53.924Z,14.00
2023-05-15T23:40:57.066Z,13.90
2023-05-15T23:44:00.148Z,13.90
2023-05-15T23:47:03.353Z,13.90
2023-05-15T23:50:08.064Z,13.90
2023-05-15T23:53:12.599Z,13.90
2023-05-15T23:56:15.875Z,13.80
2023-05-15T23:59:22.063Z,13.80
